METAR Data
IDs: Format: Raw Decoded Include TAF

Data at: 0113 UTC 06 Dec 2019

KJAU 060055Z AUTO 00000KT 10SM CLR 04/00 A3017 RMK A01
KJAU 060035Z AUTO 00000KT 10SM CLR 05/00 A3016 RMK A01
KJAU 060015Z AUTO 00000KT 10SM CLR 05/00 A3016 RMK A01
KJAU 052355Z AUTO 00000KT 10SM CLR 05/01 A3016 RMK A01
KJAU 052335Z AUTO 00000KT 10SM CLR 06/01 A3016 RMK A01
KJAU 052315Z AUTO 00000KT 10SM CLR 08/00 A3015 RMK A01
KJAU 052255Z AUTO 00000KT 10SM CLR 08/00 A3015 RMK A01
KJAU 052235Z AUTO 00000KT 10SM CLR 10/M00 A3015 RMK A01
KJAU 052215Z AUTO 00000KT 10SM CLR 11/M01 A3015 RMK A01
KJAU 052155Z AUTO 00000KT 10SM CLR 13/M01 A3014 RMK A01
KJAU 052135Z AUTO 19004KT 10SM CLR 14/M01 A3015 RMK A01
KJAU 052115Z AUTO 19006KT 10SM CLR 14/M01 A3015 RMK A01
KJAU 052055Z AUTO 16005KT 10SM CLR 14/M01 A3014 RMK A01
KJAU 052035Z AUTO 18005KT 10SM CLR 15/M01 A3014 RMK A01
KJAU 052015Z AUTO 18005KT 10SM CLR 15/M02 A3014 RMK A01
KJAU 051955Z AUTO 19004KT 10SM CLR 15/M01 A3014 RMK A01
KJAU 051935Z AUTO 19005KT 10SM CLR 15/M02 A3013 RMK A01
KJAU 051915Z AUTO 19004KT 10SM CLR 14/M02 A3013 RMK A01
KJAU 051855Z AUTO VRB03KT 10SM CLR 14/M02 A3013 RMK A01
KJAU 051835Z AUTO 20005KT 10SM CLR 13/M02 A3014 RMK A01
KJAU 051815Z AUTO 16005KT 10SM CLR 13/M02 A3014 RMK A01
KJAU 051755Z AUTO 20005KT 10SM CLR 13/M01 A3015 RMK A01
KJAU 051735Z AUTO 00000KT 10SM CLR 12/M01 A3015 RMK A01
KJAU 051715Z AUTO 17005KT 10SM CLR 12/M01 A3016 RMK A01
KJAU 051655Z AUTO 18005KT 10SM CLR 11/M01 A3017 RMK A01
KJAU 051615Z AUTO VRB03KT 10SM CLR 10/M01 A3017 RMK A01
KJAU 051555Z AUTO 00000KT 10SM CLR 10/M00 A3018 RMK A01
KJAU 051535Z AUTO 00000KT 10SM CLR 09/M00 A3017 RMK A01
KJAU 051515Z AUTO 00000KT 10SM CLR 08/M00 A3017 RMK A01
KJAU 051455Z AUTO 00000KT 10SM CLR 07/01 A3015 RMK A01
KJAU 051435Z AUTO 00000KT 10SM CLR 06/00 A3014 RMK A01
KJAU 051415Z AUTO 00000KT 10SM CLR 04/M00 A3014 RMK A01
KJAU 051355Z AUTO 00000KT 10SM CLR 03/M00 A3013 RMK A01
KJAU 051335Z AUTO 00000KT 10SM CLR 01/M01 A3014 RMK A01
KJAU 051315Z AUTO 00000KT 10SM CLR M00/M02 A3013 RMK A01
KJAU 051255Z AUTO 00000KT 10SM CLR M01/M03 A3013 RMK A01
KJAU 051235Z AUTO 00000KT 10SM CLR M01/M02 A3012 RMK A01
KJAU 051215Z AUTO 00000KT 10SM CLR M00/M02 A3012 RMK A01
KJAU 051155Z AUTO 00000KT 10SM CLR 00/M02 A3011 RMK A01
KJAU 051135Z AUTO 00000KT 10SM CLR 01/M02 A3010 RMK A01
KJAU 051115Z AUTO 00000KT 10SM CLR 03/M02 A3009 RMK A01
KJAU 051055Z AUTO VRB03KT 10SM CLR 05/M02 A3008 RMK A01
KJAU 051035Z AUTO 00000KT 10SM CLR 05/M02 A3008 RMK A01
KJAU 051015Z AUTO 00000KT 10SM CLR 04/M02 A3007 RMK A01
KJAU 050955Z AUTO 00000G10KT 10SM CLR 06/M02 A3007 RMK A01
KJAU 050935Z AUTO VRB03KT 10SM CLR 06/M02 A3007 RMK A01
KJAU 050915Z AUTO 29003KT 10SM CLR 06/M02 A3007 RMK A01
KJAU 050855Z AUTO VRB04KT 10SM CLR 07/M02 A3006 RMK A01
KJAU 050835Z AUTO 29003KT 10SM CLR 06/M02 A3005 RMK A01
KJAU 050815Z AUTO 00000KT 10SM CLR 07/M03 A3005 RMK A01
KJAU 050755Z AUTO 26003G11KT 10SM CLR 07/M03 A3004 RMK A01
KJAU 050735Z AUTO VRB04KT 10SM CLR 07/M03 A3004 RMK A01
KJAU 050715Z AUTO 00000KT 10SM CLR 08/M03 A3003 RMK A01
KJAU 050655Z AUTO VRB06KT 10SM CLR 08/M03 A3003 RMK A01
KJAU 050615Z AUTO VRB04G12KT 10SM CLR 08/M02 A3001 RMK A01
KJAU 050555Z AUTO 00000G11KT 10SM CLR 08/M03 A3000 RMK A01
KJAU 050535Z AUTO 00000KT 10SM CLR 08/M03 A3001 RMK A01
KJAU 050515Z AUTO 29003KT 10SM CLR 08/M03 A3000 RMK A01
KJAU 050455Z AUTO 00000KT 10SM CLR 08/M03 A3000 RMK A01
KJAU 050435Z AUTO 00000G10KT 10SM CLR 09/M03 A2999 RMK A01
KJAU 050415Z AUTO VRB03KT 10SM CLR 09/M03 A2999 RMK A01
KJAU 050355Z AUTO 30009G15KT 260V320 10SM CLR 09/M03 A2998 RMK A01
KJAU 050335Z AUTO VRB04KT 10SM CLR 09/M03 A2997 RMK A01
KJAU 050315Z AUTO 00000KT 10SM CLR 09/M03 A2997 RMK A01
KJAU 050255Z AUTO VRB05KT 10SM CLR 10/M03 A2996 RMK A01
KJAU 050235Z AUTO VRB06G13KT 10SM CLR 10/M03 A2995 RMK A01
KJAU 050215Z AUTO 27007G14KT 10SM CLR 10/M04 A2995 RMK A01
KJAU 050155Z AUTO VRB06G13KT 10SM CLR 10/M04 A2994 RMK A01
KJAU 050135Z AUTO VRB06G12KT 10SM CLR 10/M04 A2993 RMK A01
KJAU 050115Z AUTO VRB06G14KT 10SM CLR 10/M04 A2993 RMK A01
KJAU 050055Z AUTO VRB05G12KT 10SM CLR 10/M04 A2993 RMK A01
KJAU 050035Z AUTO 27007KT 10SM CLR 10/M04 A2992 RMK A01
KJAU 050015Z AUTO 26007G12KT 220V300 10SM CLR 11/M04 A2991 RMK A01
KJAU 042355Z AUTO 27007G16KT 230V310 10SM CLR 10/M04 A2990 RMK A01
KJAU 042335Z AUTO VRB06G14KT 10SM CLR 11/M04 A2989 RMK A01
KJAU 042315Z AUTO VRB06G12KT 10SM CLR 11/M04 A2988 RMK A01
KJAU 042255Z AUTO VRB05G13KT 10SM CLR 11/M04 A2988 RMK A01
KJAU 042235Z AUTO VRB06KT 10SM CLR 11/M05 A2987 RMK A01
KJAU 042215Z AUTO 28007G13KT 240V310 10SM CLR 11/M05 A2987 RMK A01
KJAU 042155Z AUTO 26009G15KT 230V310 10SM CLR 12/M05 A2987 RMK A01
KJAU 042135Z AUTO VRB04G12KT 10SM CLR 13/M04 A2986 RMK A01
KJAU 042115Z AUTO 25007G14KT 210V300 10SM CLR 13/M04 A2986 RMK A01
KJAU 042055Z AUTO 29007G13KT 250V320 10SM CLR 13/M04 A2985 RMK A01
KJAU 042035Z AUTO 29006G13KT 10SM CLR 13/M04 A2985 RMK A01
KJAU 042015Z AUTO VRB06G15KT 270V360 10SM CLR 13/M05 A2985 RMK A01
KJAU 041955Z AUTO 30007G17KT 250V330 10SM CLR 13/M05 A2984 RMK A01
KJAU 041935Z AUTO VRB06G16KT 10SM CLR 13/M05 A2984 RMK A01
KJAU 041915Z AUTO 29007G13KT 240V320 10SM CLR 13/M04 A2984 RMK A01
KJAU 041855Z AUTO 24008KT 210V270 10SM CLR 13/M03 A2984 RMK A01
KJAU 041835Z AUTO 23009KT 10SM CLR 12/M02 A2984 RMK A01
KJAU 041815Z AUTO 23010KT 10SM CLR 12/M02 A2984 RMK A01
KJAU 041755Z AUTO 25007G15KT 210V270 10SM CLR 11/M02 A2984 RMK A01
KJAU 041735Z AUTO 25008G14KT 210V300 10SM CLR 11/M02 A2985 RMK A01
KJAU 041715Z AUTO 00000KT 10SM CLR 10/M01 A2986 RMK A01
KJAU 041655Z AUTO VRB05KT 10SM CLR 09/00 A2987 RMK A01
KJAU 041635Z AUTO 18005KT 10SM CLR 08/01 A2988 RMK A01
KJAU 041615Z AUTO VRB03KT 10SM CLR 07/02 A2989 RMK A01
KJAU 041555Z AUTO 00000KT 10SM CLR 04/04 A2989 RMK A01
KJAU 041535Z AUTO 00000KT 10SM CLR 03/03 A2989 RMK A01
KJAU 041515Z AUTO 00000KT 10SM CLR 02/02 A2990 RMK A01
KJAU 041455Z AUTO 00000KT 1 3/4SM BR BKN002 01/01 A2990 RMK A01
KJAU 041435Z AUTO 00000KT M1/4SM FZFG OVC002 M00/M00 A2989 RMK A01
KJAU 041415Z AUTO 00000KT M1/4SM FZFG OVC002 M01/M01 A2989 RMK A01
KJAU 041355Z AUTO 00000KT M1/4SM FZFG OVC002 M02/M02 A2989 RMK A01
KJAU 041335Z AUTO 00000KT M1/4SM FZFG OVC002 M02/M02 A2988 RMK A01
KJAU 041315Z AUTO 00000KT M1/4SM FZFG OVC002 M03/M03 A2988 RMK A01 VIS M1/4V3